METAR Data
IDs: Format: Raw Decoded Include TAF

Data at: 1204 UTC 16 Feb 2019

PFKT 161156Z AUTO 12016KT 10SM OVC016 M04/M06 A2962 RMK AO2 SLP032 60000 T10441061 11039 21072 51015 FZRANO
PFKT 161056Z AUTO 12021KT 6SM BR OVC016 M05/M07 A2961 RMK AO2 SLP028 T10501072 FZRANO
PFKT 160956Z AUTO 12021KT 6SM BR OVC018 M04/M07 A2959 RMK AO2 PK WND 12029/0857 UPB23E29SNB29E39 SLP022 P0000 T10441067 FZRANO
PFKT 160911Z AUTO 11022KT 5SM BLSN BR OVC020 M05/M07 A2959 RMK AO2 PK WND 12029/0857 FZRANO
PFKT 160856Z AUTO 12027G32KT 2SM BLSN BR OVC020 M06/M07 A2958 RMK AO2 PK WND 11032/0856 VIS 1V4 UPE46 SLP017 P0000 60000 T10561072 410501089 55003 FZRANO
PFKT 160844Z AUTO 13029KT 1 3/4SM UP BR OVC018 M06/M07 A2957 RMK AO2 PK WND 13032/0844 P0000 FZRANO
PFKT 160838Z AUTO 12024KT 3SM UP BR OVC018 M06/M07 A2958 RMK AO2 PK WND 13030/0758 P0000 FZRANO
PFKT 160814Z AUTO 13022KT 2 1/2SM UP BR OVC018 M06/M07 A2958 RMK AO2 PK WND 13030/0758 VIS 1 1/2V5 P0000 FZRANO
PFKT 160756Z AUTO 13027G33KT 1 1/4SM UP BR OVC020 M06/M07 A2958 RMK AO2 PK WND 13033/0751 VIS 3/4V3 UPB33SNE33 SLP016 P0000 T10561072 FZRANO
PFKT 160751Z AUTO 13028G33KT 1 3/4SM UP BR OVC020 M06/M07 A2957 RMK AO2 PK WND 13033/0751 VIS 3/4V5 UPB33SNE33 P0000 FZRANO
PFKT 160747Z AUTO 12026G30KT 3SM UP BR OVC020 M06/M07 A2958 RMK AO2 PK WND 12030/0747 UPB33SNE33 P0000 FZRANO
PFKT 160656Z AUTO 13022G28KT 2 1/2SM -SN BR BKN026 OVC031 M06/M07 A2959 RMK AO2 PK WND 13029/0644 VIS 1 1/4V5 SLP020 P0000 T10561067 FZRANO
PFKT 160649Z AUTO 12021G29KT 2SM -SN BR OVC030 M06/M07 A2959 RMK AO2 PK WND 13029/0644 VIS 1V4 P0000 FZRANO
PFKT 160642Z AUTO 12020G26KT 1 3/4SM -SN BR OVC031 M06/M07 A2959 RMK AO2 PK WND 13026/0638 P0000 FZRANO
PFKT 160628Z AUTO 09012KT 6SM -SN BR OVC031 M07/M08 A2960 RMK AO2 P0000 FZRANO
PFKT 160618Z AUTO 09017KT 2 1/2SM -SN BR FEW019 OVC031 M07/M08 A2960 RMK AO2 P0000 FZRANO
PFKT 160609Z AUTO 09015KT 1 1/2SM -SN BR SCT019 OVC031 M07/M08 A2960 RMK AO2 P0000 FZRANO
PFKT 160556Z AUTO 11022KT 1SM -SN BR BKN019 OVC027 M07/M08 A2959 RMK AO2 PK WND 10027/0524 SLP020 P0000 60000 T10671078 11067 21089 56008 FZRANO
PFKT 160553Z AUTO 11023KT 1SM -SN BR BKN019 OVC027 M07/M08 A2959 RMK AO2 PK WND 10027/0524 P0000 FZRANO
PFKT 160541Z AUTO 11019KT 1 1/4SM -SN BR SCT019 BKN025 OVC032 M07/M08 A2959 RMK AO2 PK WND 10027/0524 P0000 FZRANO
PFKT 160528Z AUTO 11021KT 3/4SM -SN BR BKN025 OVC032 M07/M08 A2959 RMK AO2 PK WND 10027/0524 P0000 FZRANO
PFKT 160522Z AUTO 11022KT 1SM -SN BR SCT025 OVC034 M07/M09 A2959 RMK AO2 PK WND 11027/0522 P0000 FZRANO
PFKT 160511Z AUTO 10021KT 1 1/4SM -SN BR OVC025 M07/M08 A2960 RMK AO2 P0000 FZRANO
PFKT 160503Z AUTO 10021KT 3/4SM -SN BR OVC025 M07/M09 A2960 RMK AO2 P0000 FZRANO
PFKT 160456Z AUTO 10022KT 1SM -SN BR OVC025 M08/M09 A2960 RMK AO2 PK WND 10029/0427 UPB25E32SNE09B32 SLP023 P0000 T10781089 FZRANO
PFKT 160444Z AUTO 10022KT 1 3/4SM -SN BR OVC029 M08/M10 A2961 RMK AO2 PK WND 10029/0427 UPB25E32SNE09B32 P0000 FZRANO
PFKT 160437Z AUTO 11021KT 3SM -SN BR BKN029 BKN035 OVC048 M08/M10 A2961 RMK AO2 PK WND 10029/0427 UPB25E32SNE09B32 P0000 FZRANO
PFKT 160419Z AUTO 10026KT 3SM BLSN BR FEW033 SCT048 OVC060 M08/M10 A2960 RMK AO2 PK WND 10029/0416 SNE09 P0000 FZRANO
PFKT 160406Z AUTO 10026KT 1 3/4SM -SN BR OVC065 M08/M09 A2960 RMK AO2 PK WND 09029/0406 P0000 FZRANO
PFKT 160356Z AUTO 09025KT 4SM -SN BR OVC065 M08/M10 A2961 RMK AO2 PK WND 08039/0257 SNE21B56 PRESFR SLP028 P0000 T10831100 FZRANO
PFKT 160334Z AUTO 09019KT 6SM BR FEW049 OVC075 M08/M11 A2963 RMK AO2 PK WND 08039/0257 SNE21 P0000 FZRANO
PFKT 160325Z AUTO 09026KT 2SM BLSN BR FEW049 BKN070 OVC085 M08/M11 A2964 RMK AO2 PK WND 08039/0257 VIS 1V4 SNE21 P0000 FZRANO
PFKT 160322Z AUTO 09025KT 1SM BLSN BR FEW049 BKN070 OVC085 M08/M11 A2965 RMK AO2 PK WND 08039/0257 VIS 1/4V4 SNE21 P0000 FZRANO
PFKT 160256Z AUTO 08032KT 1/2SM -SN FZFG OVC085 M08/M10 A2962 RMK AO2 PK WND 08041/0208 SNB0158 SLP030 P0000 60000 T10831100 56037 FZRANO
PFKT 160229Z AUTO 09033G38KT 1/2SM -SN FZFG OVC085 M08/M10 A2963 RMK AO2 PK WND 08041/0208 SNB0158 P0000 FZRANO
PFKT 160156Z AUTO 08035G38KT 1/4SM FZFG BLSN OVC065 M08/M09 A2962 RMK AO2 PK WND 10039/0121 SNE55 PRESFR SLP032 P0000 T10781094 FZRANO
PFKT 160146Z AUTO 08029KT 1/2SM -SN FZFG BKN070 OVC080 M08/M09 A2966 RMK AO2 PK WND 10039/0121 P0000 FZRANO
PFKT 160056Z AUTO 08033G36KT 1/4SM -SN FZFG BKN055 BKN080 OVC095 M08/M10 A2967 RMK AO2 PK WND 09039/0025 UPB15E16SNE04B16 PRESFR SLP047 P0000 T10831100 FZRANO
PFKT 160048Z AUTO 09030KT 1/4SM -SN FZFG FEW055 SCT080 OVC100 M08/M09 A2969 RMK AO2 PK WND 09039/0025 UPB15E16SNE04B16 P0000 FZRANO
PFKT 160035Z AUTO 09025KT 3/4SM -SN BR OVC100 M08/M10 A2971 RMK AO2 PK WND 09039/0025 UPB15E16SNE04B16 P0000 FZRANO
PFKT 160030Z AUTO 09027G39KT 1/4SM -SN FZFG OVC100 M08/M10 A2971 RMK AO2 PK WND 09039/0025 UPB15E16SNE04B16 P0000 FZRANO
PFKT 152356Z AUTO 09029G35KT 1/2SM -SN FZFG FEW002 SCT110 M08/M09 A2972 RMK AO2 PK WND 10035/2349 UPB16E47SNB05E16B29E38B47 SLP066 P0000 60000 T10781094 11056 21083 58037 FZRANO
PFKT 152351Z AUTO 10031G35KT 1/4SM -SN FZFG FEW002 M08/M10 A2973 RMK AO2 PK WND 10035/2349 UPB16E47SNB05E16B29E38B47 P0000 FZRANO
PFKT 152345Z AUTO 09031G35KT 1/2SM UP FZFG VV002 M08/M09 A2972 RMK AO2 PK WND 09035/2343 UPB16SNB05E16B29E38 P0000 FZRANO
PFKT 152342Z AUTO 09026G30KT 3/4SM UP BR CLR M08/M09 A2972 RMK AO2 PK WND 08030/2342 UPB16SNB05E16B29E38 PRESFR P0000 FZRANO
PFKT 152335Z AUTO 08023G28KT 1 1/4SM -SN BR CLR M08/M09 A2973 RMK AO2 PK WND 08028/2332 VIS 3/4V3 UPB16E29SNB05E16B29 P0000 FZRANO
PFKT 152321Z AUTO 08022KT 2SM UP BR CLR M08/M10 A2975 RMK AO2 PK WND 08028/2310 VIS 1 1/4V4 UPB16SNB05E16 P0000 FZRANO
PFKT 152316Z AUTO 07023KT 1SM UP BR CLR M08/M09 A2975 RMK AO2 PK WND 08028/2310 UPB16SNB05E16 P0000 FZRANO
PFKT 152306Z AUTO 07024KT 1 3/4SM -SN BR CLR M08/M09 A2976 RMK AO2 PK WND 07028/2301 SNB05 P0000 FZRANO
PFKT 152256Z AUTO 08019KT 5SM HZ CLR M07/M09 A2977 RMK AO2 PK WND 08026/2253 SLP080 T10671094 FZRANO
PFKT 152156Z AUTO 08016KT 10SM CLR M07/M09 A2981 RMK AO2 SLP094 T10721094 FZRANO
PFKT 152056Z AUTO 08018KT 10SM CLR M08/M10 A2983 RMK AO2 SLP103 T10781100 56010 FZRANO
PFKT 151956Z AUTO 08020KT 10SM CLR M08/M10 A2984 RMK AO2 SLP104 T10781100 FZRANO
PFKT 151856Z AUTO 08016KT 10SM CLR M08/M10 A2984 RMK AO2 SLP107 T10781100 FZRANO
PFKT 151756Z AUTO 09017KT 10SM OVC039 M07/M09 A2986 RMK AO2 SLP113 T10721089 11050 21072 55007 FZRANO
PFKT 151656Z AUTO 08017KT 10SM OVC035 M06/M08 A2985 RMK AO2 SLP109 T10611083 FZRANO
PFKT 151645Z AUTO 09018KT 10SM SCT025 OVC033 M06/M08 A2985 RMK AO2 FZRANO
PFKT 151556Z AUTO 09013KT 10SM OVC022 M06/M09 A2987 RMK AO2 SLP114 T10611089 FZRANO
PFKT 151504Z AUTO 09012KT 10SM SCT024 BKN029 OVC035 M06/M09 A2989 RMK AO2 FZRANO
PFKT 151456Z AUTO 10013KT 10SM SCT027 OVC035 M06/M08 A2989 RMK AO2 SLP121 T10561083 53000 FZRANO
PFKT 151440Z AUTO 10009KT 10SM SCT020 OVC037 M06/M08 A2988 RMK AO2 FZRANO
PFKT 151356Z AUTO 08013KT 10SM OVC018 M06/M08 A2988 RMK AO2 SLP117 T10611083 FZRANO
PFKT 151256Z AUTO 08013KT 10SM OVC016 M07/M09 A2989 RMK AO2 SLP121 T10671089 FZRANO
PFKT 151156Z AUTO 08014KT 10SM OVC018 M07/M09 A2988 RMK AO2 SLP120 60000 T10721094 11061 21106 51007 FZRANO
PFKT 151056Z AUTO 08011KT 10SM OVC018 M07/M09 A2988 RMK AO2 SNE31 SLP118 P0000 T10671089 FZRANO
PFKT 151014Z AUTO 07015KT 5SM -SN BR OVC018 M08/M10 A2987 RMK AO2 P0000 FZRANO
PFKT 150956Z AUTO 08015KT 2 1/2SM -SN BR OVC020 M08/M10 A2987 RMK AO2 VIS 2V4 SLP116 P0000 T10831100 FZRANO
PFKT 150946Z AUTO 08015KT 2SM -SN BR FEW009 OVC020 M08/M09 A2987 RMK AO2 VIS 1 3/4V3 P0000 FZRANO
PFKT 150938Z AUTO 08015KT 1 3/4SM -SN BR FEW009 OVC020 M08/M10 A2987 RMK AO2 P0000 FZRANO
PFKT 150924Z AUTO 08014KT 1SM -SN BR SCT009 OVC020 M08/M09 A2986 RMK AO2 P0000 FZRANO
PFKT 150908Z AUTO 08013KT 2SM -SN BR OVC022 M08/M09 A2986 RMK AO2 P0000 FZRANO
PFKT 150856Z AUTO 09012KT 1 3/4SM -SN BR OVC024 M08/M10 A2986 RMK AO2 UPB12E22SNE12B22 SLP113 P0000 60000 T10781100 410781244 51011 FZRANO
PFKT 150851Z AUTO 09013KT 1 1/2SM -SN BR OVC024 M08/M10 A2986 RMK AO2 UPB12E22SNE12B22 P0000 410781244 FZRANO
PFKT 150843Z AUTO 10015KT 2SM -SN BR OVC026 M08/M09 A2986 RMK AO2 UPB12E22SNE12B22 P0000 FZRANO
PFKT 150832Z AUTO 08016KT 1 1/2SM -SN BR OVC026 M08/M10 A2985 RMK AO2 UPB12E22SNE12B22 P0000 FZRANO
PFKT 150812Z AUTO 08013KT 2 1/2SM UP BR OVC028 M09/M11 A2984 RMK AO2 UPB12SNE12 P0000 FZRANO
PFKT 150756Z AUTO 08012KT 9SM -SN BKN030 OVC035 M09/M11 A2984 RMK AO2 SNE21B37 SLP105 P0000 T10941111 FZRANO
PFKT 150656Z AUTO 08019KT 6SM -SN BR BKN032 OVC047 M09/M12 A2983 RMK AO2 SLP102 P0000 T10941117 FZRANO
PFKT 150556Z AUTO 08021KT 5SM -SN BR BKN037 BKN046 OVC055 M11/M12 A2984 RMK AO2 PK WND 09032/0505 SLP106 P0000 60000 T11061122 11094 21117 55013 FZRANO
PFKT 150549Z AUTO 09021KT 4SM -SN BR BKN045 OVC050 M11/M12 A2984 RMK AO2 PK WND 09032/0505 P0000 FZRANO
PFKT 150539Z AUTO 09024KT 2 1/2SM -SN BR BKN047 OVC055 M11/M12 A2984 RMK AO2 PK WND 09032/0505 P0000 FZRANO
PFKT 150456Z AUTO 09028KT 1 3/4SM -SN BR BKN048 OVC060 M11/M12 A2984 RMK AO2 PK WND 09031/0455 SLP105 P0000 T11061122 FZRANO
PFKT 150444Z AUTO 09026KT 1 3/4SM -SN BR SCT038 OVC047 M11/M13 A2984 RMK AO2 PK WND 08030/0439 P0000 FZRANO
PFKT 150418Z AUTO 08023KT 2SM -SN BR OVC040 M11/M13 A2985 RMK AO2 PK WND 08028/0409 P0000 FZRANO
PFKT 150356Z AUTO 08023KT 1SM -SN BR SCT022 BKN037 OVC044 M10/M12 A2985 RMK AO2 PK WND 08026/0356 SLP110 P0000 T11001122 FZRANO
PFKT 150344Z AUTO 08023KT 3/4SM -SN BR BKN022 OVC029 M10/M12 A2986 RMK AO2 P0000 FZRANO
PFKT 150330Z AUTO 08018KT 1 1/2SM -SN BR OVC019 M10/M12 A2987 RMK AO2 P0000 FZRANO
PFKT 150320Z AUTO 07014KT 1SM -SN BKN017 OVC025 M09/M12 A2987 RMK AO2 P0000 FZRANO
PFKT 150309Z AUTO 09017KT 1 3/4SM -SN BR BKN020 OVC025 M10/M12 A2987 RMK AO2 P0000 FZRANO
PFKT 150256Z AUTO 08011KT 5SM -SN OVC025 M10/M13 A2988 RMK AO2 SNB10 SLP119 P0000 60000 T11001128 56020 FZRANO
PFKT 150236Z AUTO 09014KT 9SM -SN BKN029 OVC037 M10/M13 A2989 RMK AO2 SNB10 P0000 FZRANO
PFKT 150156Z AUTO 10013KT 10SM SCT040 OVC048 M10/M13 A2990 RMK AO2 SLP126 T11001133 FZRANO
PFKT 150056Z AUTO 09014KT 10SM FEW050 OVC060 M11/M13 A2992 RMK AO2 SLP131 T11061133 FZRANO